createdAt,value
2022-12-15T00:02:28.768Z,31.85
2022-12-15T00:05:14.484Z,31.25
2022-12-15T00:08:00.407Z,30.90
2022-12-15T00:10:45.919Z,28.10
2022-12-15T00:13:32.876Z,33.63
2022-12-15T00:16:19.437Z,32.13
2022-12-15T00:19:04.949Z,34.67
2022-12-15T00:21:50.817Z,30.00
2022-12-15T00:24:36.707Z,31.85
2022-12-15T00:27:22.077Z,31.48
2022-12-15T00:30:08.005Z,30.42
2022-12-15T00:32:53.290Z,25.65
2022-12-15T00:35:39.195Z,33.00
2022-12-15T00:38:30.268Z,37.45
2022-12-15T00:40:59.716Z,30.17
2022-12-15T00:43:32.088Z,33.65
2022-12-15T00:46:32.969Z,25.70
2022-12-15T00:49:00.444Z,29.75
2022-12-15T00:51:49.005Z,32.92
2022-12-15T00:54:34.359Z,29.88
2022-12-15T00:57:20.209Z,33.28
2022-12-15T01:00:05.721Z,36.40
2022-12-15T01:02:51.608Z,35.90
2022-12-15T01:05:37.509Z,36.03
2022-12-15T01:08:23.541Z,30.38
2022-12-15T01:11:08.975Z,38.50
2022-12-15T01:13:54.617Z,32.28
2022-12-15T01:16:40.161Z,36.35
2022-12-15T01:19:27.424Z,37.90
2022-12-15T01:21:54.206Z,35.58
2022-12-15T01:24:21.217Z,34.85
2022-12-15T01:26:48.021Z,44.17
2022-12-15T01:29:15.072Z,37.60
2022-12-15T01:31:43.483Z,37.40
2022-12-15T01:34:10.622Z,35.40
2022-12-15T01:36:37.370Z,35.20
2022-12-15T01:39:04.394Z,31.55
2022-12-15T01:41:31.179Z,34.83
2022-12-15T01:44:19.548Z,31.25
2022-12-15T01:46:49.068Z,36.53
2022-12-15T01:49:20.771Z,31.98
2022-12-15T01:51:52.369Z,38.20
2022-12-15T01:54:23.521Z,37.22
2022-12-15T01:56:55.265Z,36.67
2022-12-15T01:59:31.035Z,37.28
2022-12-15T02:01:58.233Z,36.17
2022-12-15T02:04:26.174Z,32.72
2022-12-15T02:06:53.196Z,31.80
2022-12-15T02:09:22.816Z,32.00
2022-12-15T02:12:20.574Z,37.35
2022-12-15T02:14:58.646Z,32.90
2022-12-15T02:17:36.531Z,26.58
2022-12-15T02:20:23.798Z,32.35
2022-12-15T02:23:08.962Z,39.55
2022-12-15T02:25:50.619Z,36.55
2022-12-15T02:28:55.826Z,37.78
2022-12-15T02:31:50.640Z,36.15
2022-12-15T02:34:54.370Z,33.97
2022-12-15T02:37:40.398Z,37.50
2022-12-15T02:40:10.107Z,34.53
2022-12-15T02:42:42.762Z,36.20
2022-12-15T02:45:23.420Z,40.70
2022-12-15T02:48:12.086Z,32.72
2022-12-15T02:50:58.406Z,36.30
2022-12-15T02:53:46.943Z,36.25
2022-12-15T02:56:30.170Z,33.38
2022-12-15T02:59:30.769Z,34.53
2022-12-15T03:02:02.567Z,35.90
2022-12-15T03:04:33.776Z,38.72
2022-12-15T03:07:03.969Z,34.53
2022-12-15T03:09:32.098Z,37.47
2022-12-15T03:11:59.542Z,36.65
2022-12-15T03:14:27.027Z,33.38
2022-12-15T03:16:55.059Z,40.45
2022-12-15T03:19:22.600Z,36.40
2022-12-15T03:21:49.362Z,45.70
2022-12-15T03:24:16.447Z,35.80
2022-12-15T03:26:43.852Z,34.70
2022-12-15T03:29:10.879Z,33.20
2022-12-15T03:31:37.684Z,41.90
2022-12-15T03:34:04.767Z,38.75
2022-12-15T03:36:31.527Z,32.70
2022-12-15T03:38:58.532Z,37.92
2022-12-15T03:41:25.799Z,42.40
2022-12-15T03:43:52.806Z,37.90
2022-12-15T03:46:19.559Z,41.45
2022-12-15T03:48:46.608Z,39.40
2022-12-15T03:51:13.399Z,40.63
2022-12-15T03:53:40.878Z,44.90
2022-12-15T03:56:07.953Z,41.78
2022-12-15T03:58:35.089Z,47.72
2022-12-15T04:01:35.162Z,47.65
2022-12-15T04:04:04.480Z,41.80
2022-12-15T04:06:31.447Z,51.28
2022-12-15T04:08:58.631Z,43.33
2022-12-15T04:11:25.406Z,43.22
2022-12-15T04:13:52.403Z,49.22
2022-12-15T04:16:20.364Z,49.83
2022-12-15T04:19:08.282Z,53.25
2022-12-15T04:21:35.066Z,46.97
2022-12-15T04:24:20.899Z,53.00
2022-12-15T04:27:06.290Z,50.15
2022-12-15T04:29:51.990Z,52.88
2022-12-15T04:32:37.536Z,45.85
2022-12-15T04:35:23.910Z,44.35
2022-12-15T04:38:09.213Z,44.03
2022-12-15T04:40:55.176Z,42.53
2022-12-15T04:43:40.387Z,45.63
2022-12-15T04:46:26.171Z,56.35
2022-12-15T04:49:11.653Z,43.38
2022-12-15T04:51:57.262Z,43.55
2022-12-15T04:54:42.771Z,53.58
2022-12-15T04:57:28.671Z,55.38
2022-12-15T05:00:13.938Z,58.83
2022-12-15T05:02:59.755Z,51.00
2022-12-15T05:05:45.105Z,62.65
2022-12-15T05:08:31.001Z,61.00
2022-12-15T05:11:18.607Z,54.10
2022-12-15T05:14:04.449Z,62.72
2022-12-15T05:16:49.849Z,60.67
2022-12-15T05:19:35.490Z,55.05
2022-12-15T05:22:20.898Z,60.75
2022-12-15T05:25:06.743Z,66.75
2022-12-15T05:27:51.975Z,55.97
2022-12-15T05:30:37.641Z,55.83
2022-12-15T05:33:05.529Z,61.47
2022-12-15T05:35:32.552Z,68.20
2022-12-15T05:37:59.339Z,53.05
2022-12-15T05:40:26.453Z,61.53
2022-12-15T05:42:53.202Z,61.65
2022-12-15T05:45:21.491Z,63.60
2022-12-15T05:47:52.666Z,57.58
2022-12-15T05:50:20.943Z,67.80
2022-12-15T05:52:49.839Z,60.67
2022-12-15T05:55:18.558Z,50.85
2022-12-15T05:57:51.386Z,61.53
2022-12-15T06:00:18.753Z,60.65
2022-12-15T06:02:45.581Z,57.35
2022-12-15T06:05:12.842Z,64.93
2022-12-15T06:07:39.617Z,58.83
2022-12-15T06:10:06.914Z,60.70
2022-12-15T06:12:33.656Z,61.05
2022-12-15T06:15:00.717Z,61.53
2022-12-15T06:17:27.471Z,70.63
2022-12-15T06:19:54.526Z,65.22
2022-12-15T06:22:21.271Z,62.00
2022-12-15T06:24:48.301Z,68.53
2022-12-15T06:27:15.029Z,60.40
2022-12-15T06:29:45.213Z,59.72
2022-12-15T06:32:11.967Z,62.72
2022-12-15T06:34:38.961Z,65.13
2022-12-15T06:37:05.689Z,75.63
2022-12-15T06:39:32.700Z,66.93
2022-12-15T06:41:59.537Z,76.45
2022-12-15T06:44:26.570Z,81.00
2022-12-15T06:46:53.353Z,60.00
2022-12-15T06:49:21.643Z,80.82
2022-12-15T06:51:52.222Z,69.50
2022-12-15T06:54:19.310Z,55.30
2022-12-15T06:56:46.099Z,68.72
2022-12-15T06:59:17.018Z,68.55
2022-12-15T07:01:43.946Z,69.18
2022-12-15T07:04:11.410Z,69.05
2022-12-15T07:06:39.629Z,67.03
2022-12-15T07:09:11.773Z,81.28
2022-12-15T07:11:38.549Z,66.43
2022-12-15T07:14:05.724Z,70.10
2022-12-15T07:16:32.934Z,72.80
2022-12-15T07:19:00.102Z,63.83
2022-12-15T07:21:26.875Z,74.13
2022-12-15T07:23:56.780Z,73.70
2022-12-15T07:26:24.342Z,71.13
2022-12-15T07:28:51.469Z,67.88
2022-12-15T07:31:18.305Z,67.82
2022-12-15T07:33:45.628Z,65.60
2022-12-15T07:36:12.501Z,58.38
2022-12-15T07:38:39.637Z,67.47
2022-12-15T07:41:07.784Z,75.43
2022-12-15T07:43:36.006Z,68.20
2022-12-15T07:46:04.635Z,73.90
2022-12-15T07:48:32.402Z,70.82
2022-12-15T07:51:07.374Z,72.57
2022-12-15T07:53:35.770Z,65.72
2022-12-15T07:56:07.951Z,70.28
2022-12-15T07:58:36.871Z,69.05
2022-12-15T08:01:07.143Z,75.90
2022-12-15T08:03:35.801Z,61.50
2022-12-15T08:06:08.302Z,78.03
2022-12-15T08:08:35.977Z,66.88
2022-12-15T08:11:07.648Z,67.57
2022-12-15T08:14:02.077Z,70.25
2022-12-15T08:16:22.684Z,64.22
2022-12-15T08:18:49.838Z,62.03
2022-12-15T08:21:17.054Z,57.35
2022-12-15T08:23:44.536Z,62.05
2022-12-15T08:26:13.714Z,49.83
2022-12-15T08:28:41.517Z,66.03
2022-12-15T08:31:11.691Z,55.33
2022-12-15T08:33:39.920Z,60.58
2022-12-15T08:36:09.687Z,56.17
2022-12-15T08:38:38.833Z,48.83
2022-12-15T08:41:14.303Z,51.63
2022-12-15T08:43:48.122Z,59.33
2022-12-15T08:48:43.542Z,51.50
2022-12-15T08:51:10.647Z,52.50
2022-12-15T08:53:38.739Z,50.45
2022-12-15T08:56:12.380Z,61.45
2022-12-15T08:58:40.385Z,54.67
2022-12-15T09:01:11.144Z,60.53
2022-12-15T09:03:38.928Z,57.60
2022-12-15T09:06:08.058Z,62.22
2022-12-15T09:08:35.591Z,46.65
2022-12-15T09:11:02.997Z,56.05
2022-12-15T09:13:31.281Z,55.72
2022-12-15T09:16:15.232Z,58.17
2022-12-15T09:18:44.839Z,55.47
2022-12-15T09:21:12.675Z,54.17
2022-12-15T09:23:40.513Z,61.88
2022-12-15T09:26:09.983Z,55.03
2022-12-15T09:28:38.377Z,58.38
2022-12-15T09:31:17.103Z,61.88
2022-12-15T09:33:44.451Z,63.65
2022-12-15T09:36:13.247Z,51.78
2022-12-15T09:38:42.077Z,66.88
2022-12-15T09:41:15.038Z,57.60
2022-12-15T09:43:59.917Z,70.03
2022-12-15T09:46:41.967Z,63.58
2022-12-15T09:49:25.316Z,58.78
2022-12-15T09:52:01.049Z,58.05
2022-12-15T09:54:32.534Z,62.58
2022-12-15T09:57:04.484Z,58.75
2022-12-15T09:59:46.723Z,68.45
2022-12-15T10:02:27.911Z,62.87
2022-12-15T10:05:19.035Z,60.25
2022-12-15T10:07:50.562Z,57.58
2022-12-15T10:10:32.483Z,57.13
2022-12-15T10:13:04.703Z,64.20
2022-12-15T10:15:41.901Z,58.53
2022-12-15T10:18:45.084Z,56.58
2022-12-15T10:21:22.323Z,67.25
2022-12-15T10:23:51.356Z,60.10
2022-12-15T10:26:21.577Z,61.25
2022-12-15T10:29:02.194Z,63.80
2022-12-15T10:31:41.879Z,65.15
2022-12-15T10:34:32.085Z,57.17
2022-12-15T10:36:59.498Z,55.67
2022-12-15T10:39:43.846Z,63.72
2022-12-15T10:42:15.441Z,57.38
2022-12-15T10:44:45.225Z,59.08
2022-12-15T10:47:31.316Z,59.15
2022-12-15T10:50:24.801Z,59.58
2022-12-15T10:52:52.413Z,68.88
2022-12-15T10:55:32.590Z,50.65
2022-12-15T10:58:02.155Z,58.35
2022-12-15T11:00:31.496Z,50.50
2022-12-15T11:02:59.252Z,63.95
2022-12-15T11:05:27.362Z,61.65
2022-12-15T11:08:15.378Z,66.47
2022-12-15T11:11:17.481Z,55.63
2022-12-15T11:14:07.265Z,65.78
2022-12-15T11:16:34.043Z,58.05
2022-12-15T11:19:40.352Z,67.35
2022-12-15T11:22:36.299Z,67.70
2022-12-15T11:25:16.483Z,63.22
2022-12-15T11:27:45.194Z,70.90
2022-12-15T11:30:17.039Z,59.63
2022-12-15T11:32:49.826Z,69.47
2022-12-15T11:35:25.395Z,67.88
2022-12-15T11:38:01.586Z,65.38
2022-12-15T11:40:42.822Z,49.20
2022-12-15T11:43:15.628Z,71.82
2022-12-15T11:46:13.736Z,72.53
2022-12-15T11:48:52.672Z,61.22
2022-12-15T11:51:26.048Z,66.93
2022-12-15T11:54:08.087Z,99.53
2022-12-15T11:56:59.619Z,67.82
2022-12-15T11:59:38.519Z,68.57
2022-12-15T12:02:20.964Z,70.50
2022-12-15T12:04:56.716Z,69.03
2022-12-15T12:07:45.715Z,76.00
2022-12-15T12:10:38.607Z,89.03
2022-12-15T12:13:35.233Z,84.80
2022-12-15T12:16:09.337Z,75.80
2022-12-15T12:21:44.005Z,72.13
2022-12-15T12:24:29.974Z,81.78
2022-12-15T12:27:26.221Z,82.82
2022-12-15T12:30:01.977Z,73.90
2022-12-15T12:32:34.696Z,73.00
2022-12-15T12:35:31.635Z,88.63
2022-12-15T12:38:06.635Z,64.35
2022-12-15T12:40:42.413Z,80.13
2022-12-15T12:43:14.000Z,76.07
2022-12-15T12:45:53.583Z,79.15
2022-12-15T12:48:29.572Z,81.10
2022-12-15T12:51:18.347Z,81.20
2022-12-15T12:53:45.368Z,69.75
2022-12-15T12:56:34.089Z,79.05
2022-12-15T12:59:07.905Z,82.72
2022-12-15T13:01:38.434Z,82.65
2022-12-15T13:04:33.973Z,76.05
2022-12-15T13:07:07.749Z,75.47
2022-12-15T13:09:40.370Z,82.60
2022-12-15T13:12:53.930Z,62.13
2022-12-15T13:15:42.492Z,73.25
2022-12-15T13:18:22.497Z,75.93
2022-12-15T13:20:58.959Z,71.40
2022-12-15T13:23:26.122Z,69.80
2022-12-15T13:25:55.965Z,70.07
2022-12-15T13:28:29.436Z,65.68
2022-12-15T13:31:27.872Z,63.13
2022-12-15T13:34:14.975Z,70.32
2022-12-15T13:36:41.742Z,77.03
2022-12-15T13:39:12.263Z,76.90
2022-12-15T13:42:00.607Z,86.45
2022-12-15T13:44:36.228Z,67.18
2022-12-15T13:47:29.772Z,73.90
2022-12-15T13:50:27.352Z,75.05
2022-12-15T13:53:18.416Z,76.88
2022-12-15T13:55:55.084Z,71.15
2022-12-15T13:58:24.518Z,86.68
2022-12-15T14:00:56.925Z,71.22
2022-12-15T14:03:24.515Z,63.80
2022-12-15T14:05:56.789Z,72.68
2022-12-15T14:10:56.846Z,66.15
2022-12-15T14:13:25.127Z,69.75
2022-12-15T14:15:56.296Z,73.13
2022-12-15T14:18:35.134Z,67.88
2022-12-15T14:21:19.558Z,72.30
2022-12-15T14:24:11.405Z,72.82
2022-12-15T14:26:33.782Z,73.00
2022-12-15T14:29:02.923Z,77.90
2022-12-15T14:31:30.969Z,69.10
2022-12-15T14:34:13.583Z,64.93
2022-12-15T14:36:42.232Z,68.28
2022-12-15T14:39:30.582Z,80.05
2022-12-15T14:42:01.309Z,75.28
2022-12-15T14:44:37.889Z,67.80
2022-12-15T14:47:08.984Z,71.72
2022-12-15T14:49:42.594Z,65.13
2022-12-15T14:52:43.713Z,75.20
2022-12-15T14:55:29.154Z,71.32
2022-12-15T14:57:56.344Z,67.07
2022-12-15T15:00:32.459Z,61.85
2022-12-15T15:03:04.871Z,72.88
2022-12-15T15:03:18.172Z,74.55
2022-12-15T15:05:48.407Z,65.03
2022-12-15T15:08:24.477Z,76.43
2022-12-15T15:10:51.721Z,65.20
2022-12-15T15:13:25.138Z,71.45
2022-12-15T15:16:00.255Z,72.30
2022-12-15T15:18:29.540Z,67.97
2022-12-15T15:21:04.782Z,67.13
2022-12-15T15:23:32.339Z,75.80
2022-12-15T15:26:04.785Z,74.57
2022-12-15T15:28:43.698Z,73.20
2022-12-15T15:31:25.492Z,69.25
2022-12-15T15:33:53.042Z,80.65
2022-12-15T15:36:21.853Z,82.68
2022-12-15T15:38:48.966Z,82.47
2022-12-15T15:41:16.983Z,75.68
2022-12-15T15:43:44.423Z,82.28
2022-12-15T15:46:14.529Z,88.57
2022-12-15T15:48:48.931Z,81.43
2022-12-15T15:51:15.796Z,84.43
2022-12-15T15:53:43.155Z,79.15
2022-12-15T15:56:14.096Z,84.55
2022-12-15T15:58:43.710Z,80.38
2022-12-15T16:01:13.373Z,78.68
2022-12-15T16:03:41.896Z,63.50
2022-12-15T16:06:20.736Z,74.85
2022-12-15T16:08:52.078Z,73.60
2022-12-15T16:11:19.034Z,69.28
2022-12-15T16:13:46.128Z,66.43
2022-12-15T16:16:18.976Z,66.30
2022-12-15T16:18:46.205Z,67.97
2022-12-15T16:21:14.801Z,53.10
2022-12-15T16:23:44.965Z,59.92
2022-12-15T16:26:17.444Z,58.53
2022-12-15T16:28:44.532Z,62.25
2022-12-15T16:31:38.935Z,58.70
2022-12-15T16:34:08.175Z,56.58
2022-12-15T16:36:35.283Z,58.05
2022-12-15T16:39:03.391Z,55.13
2022-12-15T16:41:30.423Z,58.05
2022-12-15T16:44:00.103Z,52.53
2022-12-15T16:46:28.044Z,53.35
2022-12-15T16:48:55.380Z,56.92
2022-12-15T16:51:38.728Z,49.90
2022-12-15T16:54:07.020Z,57.50
2022-12-15T16:56:33.859Z,50.78
2022-12-15T16:59:31.263Z,57.67
2022-12-15T17:01:48.690Z,52.40
2022-12-15T17:04:16.727Z,50.03
2022-12-15T17:06:43.695Z,53.42
2022-12-15T17:09:20.921Z,48.42
2022-12-15T17:11:48.050Z,53.00
2022-12-15T17:14:15.938Z,51.10
2022-12-15T17:16:42.747Z,55.85
2022-12-15T17:19:09.990Z,47.83
2022-12-15T17:21:49.093Z,50.22
2022-12-15T17:24:21.940Z,50.60
2022-12-15T17:26:49.155Z,52.80
2022-12-15T17:29:25.348Z,52.13
2022-12-15T17:31:52.692Z,52.78
2022-12-15T17:34:25.936Z,58.03
2022-12-15T17:36:53.031Z,60.87
2022-12-15T17:39:22.149Z,49.92
2022-12-15T17:42:05.942Z,56.03
2022-12-15T17:47:07.845Z,49.03
2022-12-15T17:49:37.722Z,52.17
2022-12-15T17:52:16.634Z,53.72
2022-12-15T17:54:44.061Z,54.20
2022-12-15T17:57:11.961Z,46.30
2022-12-15T17:59:39.267Z,46.40
2022-12-15T18:02:07.229Z,51.42
2022-12-15T18:04:35.319Z,49.17
2022-12-15T18:07:02.870Z,52.00
2022-12-15T18:09:30.296Z,50.65
2022-12-15T18:11:59.785Z,50.67
2022-12-15T18:14:27.926Z,53.90
2022-12-15T18:16:54.726Z,53.47
2022-12-15T18:19:21.951Z,48.00
2022-12-15T18:21:48.941Z,52.80
2022-12-15T18:24:21.577Z,53.28
2022-12-15T18:26:48.878Z,45.83
2022-12-15T18:29:20.180Z,48.75
2022-12-15T18:31:48.744Z,44.63
2022-12-15T18:34:18.861Z,43.53
2022-12-15T18:36:45.767Z,46.20
2022-12-15T18:39:17.932Z,45.80
2022-12-15T18:41:45.575Z,44.65
2022-12-15T18:44:26.378Z,43.50
2022-12-15T18:46:55.366Z,46.10
2022-12-15T18:49:23.878Z,42.08
2022-12-15T18:51:50.696Z,40.20
2022-12-15T18:54:21.142Z,35.17
2022-12-15T18:56:48.178Z,38.55
2022-12-15T18:59:17.260Z,43.17
2022-12-15T19:01:47.241Z,44.78
2022-12-15T19:04:15.174Z,41.75
2022-12-15T19:06:42.506Z,40.53
2022-12-15T19:09:21.673Z,42.70
2022-12-15T19:12:09.764Z,38.58
2022-12-15T19:14:43.311Z,36.03
2022-12-15T19:17:36.476Z,41.67
2022-12-15T19:20:25.627Z,39.00
2022-12-15T19:22:52.567Z,36.90
2022-12-15T19:25:25.811Z,36.08
2022-12-15T19:28:00.594Z,33.95
2022-12-15T19:30:33.160Z,39.35
2022-12-15T19:35:29.348Z,32.25
2022-12-15T19:37:58.549Z,43.83
2022-12-15T19:40:30.285Z,33.88
2022-12-15T19:42:58.600Z,34.90
2022-12-15T19:45:28.229Z,35.83
2022-12-15T19:47:55.213Z,30.25
2022-12-15T19:50:28.436Z,33.60
2022-12-15T19:52:59.987Z,36.33
2022-12-15T19:55:32.580Z,31.92
2022-12-15T19:58:00.891Z,34.22
2022-12-15T20:00:28.103Z,32.95
2022-12-15T20:02:55.725Z,33.30
2022-12-15T20:05:29.864Z,36.40
2022-12-15T20:07:56.633Z,36.35
2022-12-15T20:10:31.735Z,38.78
2022-12-15T20:12:59.150Z,42.35
2022-12-15T20:15:26.578Z,43.28
2022-12-15T20:17:57.249Z,37.30
2022-12-15T20:20:27.712Z,34.22
2022-12-15T20:22:56.535Z,37.85
2022-12-15T20:25:34.509Z,34.47
2022-12-15T20:28:01.732Z,39.45
2022-12-15T20:30:33.009Z,33.35
2022-12-15T20:33:01.912Z,35.55
2022-12-15T20:35:33.048Z,30.02
2022-12-15T20:38:02.297Z,29.67
2022-12-15T20:40:31.275Z,29.27
2022-12-15T20:42:58.248Z,28.27
2022-12-15T20:45:27.143Z,30.70
2022-12-15T20:47:55.807Z,24.65
2022-12-15T20:50:33.282Z,31.50
2022-12-15T20:53:00.427Z,26.75
2022-12-15T20:55:28.703Z,27.00
2022-12-15T20:57:55.640Z,34.95
2022-12-15T21:00:23.143Z,25.48
2022-12-15T21:02:52.036Z,30.52
2022-12-15T21:05:24.858Z,27.90
2022-12-15T21:07:52.505Z,28.48
2022-12-15T21:10:20.917Z,29.45
2022-12-15T21:12:49.547Z,25.75
2022-12-15T21:15:20.125Z,25.60
2022-12-15T21:18:19.825Z,27.15
2022-12-15T21:20:42.009Z,25.30
2022-12-15T21:23:32.123Z,26.20
2022-12-15T21:26:02.223Z,28.50
2022-12-15T21:28:29.246Z,23.23
2022-12-15T21:30:56.573Z,27.75
2022-12-15T21:33:23.444Z,27.13
2022-12-15T21:35:52.891Z,24.02
2022-12-15T21:38:30.859Z,26.63
2022-12-15T21:41:00.470Z,27.05
2022-12-15T21:43:30.556Z,24.80
2022-12-15T21:45:59.174Z,23.67
2022-12-15T21:48:44.862Z,25.17
2022-12-15T21:51:16.527Z,27.80
2022-12-15T21:53:45.414Z,23.73
2022-12-15T21:56:17.363Z,25.15
2022-12-15T21:58:46.081Z,25.90
2022-12-15T22:01:15.101Z,24.40
2022-12-15T22:03:44.909Z,21.27
2022-12-15T22:06:21.010Z,23.80
2022-12-15T22:08:48.530Z,21.45
2022-12-15T22:11:25.102Z,18.73
2022-12-15T22:13:53.230Z,21.30
2022-12-15T22:16:22.684Z,25.45
2022-12-15T22:18:53.330Z,24.25
2022-12-15T22:21:23.193Z,25.88
2022-12-15T22:23:50.840Z,22.75
2022-12-15T22:26:31.472Z,27.65
2022-12-15T22:29:02.302Z,26.15
2022-12-15T22:31:29.593Z,24.60
2022-12-15T22:33:56.576Z,26.23
2022-12-15T22:36:23.621Z,29.52
2022-12-15T22:38:50.378Z,25.25
2022-12-15T22:41:20.689Z,30.45
2022-12-15T22:43:56.255Z,32.33
2022-12-15T22:46:24.764Z,29.90
2022-12-15T22:48:52.560Z,27.67
2022-12-15T22:51:21.970Z,30.80
2022-12-15T22:53:48.793Z,26.27
2022-12-15T22:56:24.702Z,29.73
2022-12-15T22:58:59.517Z,27.75
2022-12-15T23:01:26.954Z,25.02
2022-12-15T23:03:54.170Z,33.05
2022-12-15T23:06:23.588Z,31.80
2022-12-15T23:08:55.850Z,28.88
2022-12-15T23:11:39.595Z,29.73
2022-12-15T23:14:18.147Z,31.70
2022-12-15T23:16:49.216Z,27.83
2022-12-15T23:19:25.198Z,28.33
2022-12-15T23:21:52.583Z,25.80
2022-12-15T23:24:19.341Z,25.83
2022-12-15T23:26:46.404Z,23.92
2022-12-15T23:29:13.194Z,32.83
2022-12-15T23:31:40.334Z,27.17
2022-12-15T23:34:07.313Z,27.10
2022-12-15T23:36:34.345Z,28.90
2022-12-15T23:39:01.097Z,23.67
2022-12-15T23:41:29.395Z,32.58
2022-12-15T23:43:56.207Z,30.85
2022-12-15T23:46:23.363Z,29.17
2022-12-15T23:48:53.311Z,27.58
2022-12-15T23:51:22.199Z,25.00
2022-12-15T23:53:49.113Z,27.00
2022-12-15T23:56:20.249Z,22.15
2022-12-15T23:58:49.322Z,24.05
